Time;durP1;ratioP1;P1;durP2;ratioP2;P2;SDS_P1;SDS_P2;PMS_P1;PMS_P2;Temp;Humidity;BMP_temperature;BMP_pressure;BME280_temperature;BME280_humidity;BME280_pressure;Samples;Min_cycle;Max_cycle;Signal;HPM_P1;HPM_P2
2022/06/25 00:01:33;;;;;;;10.87;5.03;;;22.20;80.00;;;;;;5028074;28;20212;-88
2022/06/25 00:04:00;;;;;;;12.23;4.83;;;22.20;80.50;;;;;;5026875;28;20217;-90
2022/06/25 00:06:27;;;;;;;7.63;4.17;;;22.20;80.20;;;;;;5025392;28;20688;-90
2022/06/25 00:08:55;;;;;;;9.97;4.83;;;22.10;80.20;;;;;;5025061;28;20666;-91
2022/06/25 00:14:22;;;;;;;10.50;5.10;;;22.10;80.20;;;;;;4985708;28;20210;-90
2022/06/25 00:16:52;;;;;;;12.73;5.47;;;22.10;80.10;;;;;;4984833;28;20242;-88
2022/06/25 00:19:19;;;;;;;10.67;4.47;;;22.00;80.40;;;;;;5005118;28;20289;-88
2022/06/25 00:21:46;;;;;;;7.27;3.87;;;22.00;80.40;;;;;;5025674;28;20209;-89
2022/06/25 00:24:16;;;;;;;10.00;4.90;;;22.00;80.30;;;;;;5024769;28;20200;-89
2022/06/25 00:26:44;;;;;;;8.77;4.70;;;22.00;80.30;;;;;;5012234;28;20205;-89
2022/06/25 00:29:11;;;;;;;8.90;4.23;;;22.00;81.10;;;;;;5027106;28;21051;-89
2022/06/25 00:31:38;;;;;;;12.47;5.33;;;21.90;80.30;;;;;;5026931;28;20201;-90
2022/06/25 00:34:07;;;;;;;10.37;4.83;;;21.90;80.10;;;;;;5027692;28;20204;-89
2022/06/25 00:36:34;;;;;;;13.97;5.90;;;21.90;80.40;;;;;;5025006;28;20212;-89
2022/06/25 00:39:01;;;;;;;10.83;4.77;;;21.90;80.00;;;;;;5027165;28;20296;-88
2022/06/25 00:41:29;;;;;;;18.40;7.17;;;21.90;79.70;;;;;;5025127;28;20290;-88
2022/06/25 00:43:57;;;;;;;9.73;4.37;;;21.90;79.60;;;;;;5012396;28;20205;-89
2022/06/25 00:46:24;;;;;;;9.47;4.50;;;21.90;79.60;;;;;;5011286;28;20228;-91
2022/06/25 00:48:51;;;;;;;8.67;4.20;;;21.80;79.30;;;;;;5023066;28;20921;-90
2022/06/25 00:51:23;;;;;;;12.90;5.27;;;21.80;79.00;;;;;;5029096;28;20205;-89
2022/06/25 00:53:55;;;;;;;13.67;4.70;;;21.70;78.80;;;;;;5029631;28;20228;-90
2022/06/25 00:56:25;;;;;;;17.83;5.97;;;21.80;78.70;;;;;;5030438;28;20232;-90
2022/06/25 00:58:56;;;;;;;13.90;5.50;;;21.70;78.40;;;;;;5031525;28;20657;-89
2022/06/25 01:01:24;;;;;;;13.80;5.13;;;21.70;78.80;;;;;;5031405;28;20738;-89
2022/06/25 01:03:51;;;;;;;10.87;4.00;;;21.60;78.30;;;;;;5031202;28;20240;-90
2022/06/25 01:06:20;;;;;;;18.27;6.03;;;21.60;78.00;;;;;;5029738;28;20290;-88
2022/06/25 01:08:47;;;;;;;8.07;3.47;;;21.60;77.90;;;;;;5031444;28;20232;-89
2022/06/25 01:11:15;;;;;;;11.73;4.30;;;21.60;77.80;;;;;;5031047;28;20294;-88
2022/06/25 01:13:42;;;;;;;13.97;5.20;;;21.60;77.80;;;;;;5029783;28;20677;-89
2022/06/25 01:16:09;;;;;;;12.23;4.43;;;21.50;77.80;;;;;;5017471;28;20205;-88
2022/06/25 01:18:36;;;;;;;10.53;4.17;;;21.60;78.10;;;;;;5029124;28;20299;-90
2022/06/25 01:21:06;;;;;;;11.37;4.23;;;21.50;77.80;;;;;;5026968;28;20211;-89
2022/06/25 01:23:35;;;;;;;13.87;4.47;;;21.50;77.60;;;;;;5026806;28;20205;-88
2022/06/25 01:26:02;;;;;;;9.90;3.73;;;21.50;77.20;;;;;;5032189;28;20228;-89
2022/06/25 01:28:29;;;;;;;20.10;5.87;;;21.60;77.00;;;;;;5031213;28;20211;-90
2022/06/25 01:30:56;;;;;;;9.20;3.17;;;21.50;76.80;;;;;;5031293;28;20212;-91
2022/06/25 01:33:23;;;;;;;14.00;4.70;;;21.50;76.80;;;;;;5029285;28;20305;-88
2022/06/25 01:35:50;;;;;;;8.93;3.67;;;21.50;76.50;;;;;;5029972;28;20312;-88
2022/06/25 01:38:17;;;;;;;14.97;5.17;;;21.50;76.60;;;;;;5023971;28;20231;-89
2022/06/25 01:40:45;;;;;;;11.33;4.10;;;21.50;77.00;;;;;;5010643;28;20870;-91
2022/06/25 01:43:12;;;;;;;11.50;4.30;;;21.50;77.10;;;;;;5026334;28;20205;-89
2022/06/25 01:45:41;;;;;;;12.20;4.47;;;21.50;76.90;;;;;;5029187;28;20689;-89
2022/06/25 01:48:09;;;;;;;9.33;3.83;;;21.50;76.70;;;;;;5029726;28;20213;-89
2022/06/25 01:50:37;;;;;;;7.43;3.37;;;21.50;76.70;;;;;;5029440;28;20273;-89
2022/06/25 01:53:04;;;;;;;10.37;3.60;;;21.50;76.40;;;;;;5026368;28;20229;-89
2022/06/25 01:55:32;;;;;;;10.50;3.87;;;21.50;76.40;;;;;;5029301;28;20211;-90
2022/06/25 01:58:01;;;;;;;12.03;4.37;;;21.50;76.50;;;;;;5030092;28;20205;-89
2022/06/25 02:00:30;;;;;;;6.77;3.10;;;21.50;76.40;;;;;;5029662;28;20209;-90
2022/06/25 02:02:58;;;;;;;11.17;3.50;;;21.50;76.40;;;;;;5030860;28;20279;-92
2022/06/25 02:08:16;;;;;;;12.10;3.97;;;21.50;75.90;;;;;;5029722;28;20216;-89
2022/06/25 02:10:45;;;;;;;9.97;3.67;;;21.50;76.20;;;;;;5029421;28;20740;-90
2022/06/25 02:13:14;;;;;;;10.97;3.80;;;21.50;76.20;;;;;;5028418;28;20209;-93
2022/06/25 02:15:41;;;;;;;11.97;4.27;;;21.50;76.20;;;;;;5018977;28;20208;-90
2022/06/25 02:18:11;;;;;;;9.83;3.40;;;21.50;76.10;;;;;;5010146;28;20210;-89
2022/06/25 02:20:39;;;;;;;8.23;3.30;;;21.50;76.00;;;;;;5021644;28;20209;-89
2022/06/25 02:23:08;;;;;;;8.50;3.23;;;21.50;76.20;;;;;;5028895;28;20212;-90
2022/06/25 02:25:35;;;;;;;10.90;3.83;;;21.50;76.10;;;;;;5028905;28;20323;-88
2022/06/25 02:28:02;;;;;;;16.23;5.00;;;21.50;75.90;;;;;;5027968;28;20200;-88
2022/06/25 02:30:32;;;;;;;12.40;4.20;;;21.50;76.10;;;;;;5030018;28;20213;-89
2022/06/25 02:32:59;;;;;;;16.80;5.73;;;21.50;75.80;;;;;;5027074;28;20205;-88
2022/06/25 02:35:26;;;;;;;11.50;3.90;;;21.50;75.90;;;;;;5029043;28;20201;-89
2022/06/25 02:37:54;;;;;;;15.70;4.93;;;21.50;76.10;;;;;;5024898;28;20227;-88
2022/06/25 02:40:21;;;;;;;11.77;3.40;;;21.50;76.10;;;;;;5029479;28;20201;-89
2022/06/25 02:42:49;;;;;;;7.43;2.60;;;21.50;76.00;;;;;;5034939;28;20618;-90
2022/06/25 02:45:16;;;;;;;9.17;3.27;;;21.50;76.00;;;;;;5029778;28;20216;-88
2022/06/25 02:47:45;;;;;;;11.37;3.80;;;21.50;76.10;;;;;;5030966;28;20215;-88
2022/06/25 02:50:12;;;;;;;15.00;4.77;;;21.40;75.90;;;;;;5030088;28;20967;-89
2022/06/25 02:52:39;;;;;;;10.63;3.80;;;21.50;76.00;;;;;;5030323;28;20245;-88
2022/06/25 02:55:08;;;;;;;12.17;4.23;;;21.40;76.00;;;;;;5031175;28;20215;-90
2022/06/25 03:00:22;;;;;;;11.50;4.13;;;21.40;76.20;;;;;;5014756;28;20209;-90
2022/06/25 03:02:51;;;;;;;9.40;3.60;;;21.40;76.30;;;;;;5023094;28;20252;-90
2022/06/25 03:05:18;;;;;;;13.60;4.60;;;21.40;76.70;;;;;;5022463;28;20593;-89
2022/06/25 03:07:46;;;;;;;10.23;3.43;;;21.40;76.50;;;;;;5030889;28;20286;-89
2022/06/25 03:10:13;;;;;;;9.50;3.43;;;21.40;76.90;;;;;;5027521;28;20208;-89
2022/06/25 03:12:40;;;;;;;13.97;4.33;;;21.40;76.80;;;;;;5021365;28;20295;-91
2022/06/25 03:15:08;;;;;;;12.07;4.03;;;21.40;76.80;;;;;;5028051;28;20204;-90
2022/06/25 03:17:35;;;;;;;10.73;4.10;;;21.40;76.80;;;;;;5028635;28;20289;-91
2022/06/25 03:20:04;;;;;;;7.70;2.97;;;21.40;76.80;;;;;;5027539;28;20258;-91
2022/06/25 03:22:32;;;;;;;11.03;3.90;;;21.30;76.90;;;;;;5027750;28;20267;-88
2022/06/25 03:24:59;;;;;;;11.03;3.60;;;21.40;77.00;;;;;;5026773;28;20244;-89
2022/06/25 03:27:26;;;;;;;10.33;3.67;;;21.40;77.00;;;;;;5026708;28;20217;-88
2022/06/25 03:29:53;;;;;;;11.53;3.77;;;21.40;77.00;;;;;;5027790;28;20262;-89
2022/06/25 03:32:20;;;;;;;8.73;3.37;;;21.40;77.00;;;;;;5027552;28;20211;-89
2022/06/25 03:34:48;;;;;;;8.57;3.17;;;21.40;77.00;;;;;;5027077;28;20219;-88
2022/06/25 03:37:18;;;;;;;12.70;3.80;;;21.40;77.20;;;;;;5025723;28;20201;-89
2022/06/25 03:39:48;;;;;;;10.77;3.20;;;21.30;77.10;;;;;;5026447;28;20278;-90
2022/06/25 03:42:15;;;;;;;12.97;4.20;;;21.40;77.30;;;;;;5024777;28;20207;-91
2022/06/25 03:44:42;;;;;;;15.27;5.30;;;21.30;77.50;;;;;;5026661;28;20217;-89
2022/06/25 03:47:09;;;;;;;14.17;4.93;;;21.30;77.60;;;;;;5027223;28;20235;-89
2022/06/25 03:49:36;;;;;;;10.10;3.57;;;21.30;77.70;;;;;;5027523;28;20244;-90
2022/06/25 03:52:06;;;;;;;11.20;3.97;;;21.30;77.80;;;;;;5027286;28;20253;-90
2022/06/25 03:54:35;;;;;;;12.90;3.93;;;21.30;77.90;;;;;;5027053;28;20218;-89
2022/06/25 03:57:02;;;;;;;10.37;3.10;;;21.30;78.00;;;;;;5026109;28;20748;-92
2022/06/25 03:59:29;;;;;;;8.43;3.13;;;21.30;78.00;;;;;;5027217;28;20646;-89
2022/06/25 04:01:57;;;;;;;10.00;3.43;;;21.30;78.00;;;;;;5027338;28;20296;-91
2022/06/25 04:04:24;;;;;;;13.13;4.43;;;21.30;78.10;;;;;;5020289;28;20205;-89
2022/06/25 04:06:51;;;;;;;11.23;3.70;;;21.30;78.30;;;;;;5021364;28;20236;-88
2022/06/25 04:09:18;;;;;;;16.90;5.63;;;21.30;78.40;;;;;;5025288;28;20212;-89
2022/06/25 04:11:47;;;;;;;11.93;3.60;;;21.30;78.40;;;;;;5025338;28;20676;-89
2022/06/25 04:14:14;;;;;;;10.20;3.27;;;21.30;78.90;;;;;;5025268;28;20207;-90
2022/06/25 04:16:41;;;;;;;9.37;3.63;;;21.40;79.00;;;;;;5027821;28;20308;-88
2022/06/25 04:19:08;;;;;;;9.30;3.37;;;21.40;79.20;;;;;;5024276;28;20263;-89
2022/06/25 04:21:35;;;;;;;15.00;5.03;;;21.40;79.40;;;;;;5027090;28;20213;-89
2022/06/25 04:24:02;;;;;;;17.53;5.27;;;21.40;79.60;;;;;;5024682;28;20205;-89
2022/06/25 04:26:29;;;;;;;12.20;4.10;;;21.40;78.60;;;;;;5028374;28;20228;-91
2022/06/25 04:29:08;;;;;;;9.47;3.13;;;21.40;78.20;;;;;;5024947;28;20299;-90
2022/06/25 04:31:36;;;;;;;9.60;3.30;;;21.40;76.90;;;;;;5030612;28;20244;-89
2022/06/25 04:34:05;;;;;;;10.57;3.27;;;21.40;75.70;;;;;;5033038;28;20209;-87
2022/06/25 04:36:32;;;;;;;7.33;2.77;;;21.40;75.10;;;;;;5028965;28;20274;-89
2022/06/25 04:38:59;;;;;;;12.80;3.90;;;21.40;74.50;;;;;;5028891;28;20203;-89
2022/06/25 04:41:26;;;;;;;8.37;3.03;;;21.30;73.80;;;;;;5024416;28;20192;-88
2022/06/25 04:43:54;;;;;;;11.87;3.33;;;21.30;73.60;;;;;;5025944;28;20327;-88
2022/06/25 04:46:22;;;;;;;11.93;3.87;;;21.30;73.10;;;;;;5026927;28;20283;-87
2022/06/25 04:48:49;;;;;;;8.70;2.90;;;21.30;72.80;;;;;;5026681;28;20258;-89
2022/06/25 04:51:16;;;;;;;9.07;3.00;;;21.20;72.30;;;;;;5025975;28;20233;-89
2022/06/25 04:53:56;;;;;;;9.23;3.10;;;21.20;72.40;;;;;;5031508;28;20200;-88
2022/06/25 04:56:24;;;;;;;13.73;4.37;;;21.20;72.30;;;;;;5016958;28;20243;-89
2022/06/25 04:58:52;;;;;;;8.50;2.97;;;21.20;72.80;;;;;;5020032;28;20215;-89
2022/06/25 05:01:21;;;;;;;20.60;6.33;;;21.10;72.40;;;;;;5021374;28;20798;-87
2022/06/25 05:03:49;;;;;;;8.60;3.13;;;21.10;71.80;;;;;;5028286;28;20295;-88
2022/06/25 05:06:18;;;;;;;7.63;2.70;;;21.10;72.20;;;;;;5027926;28;20248;-87
2022/06/25 05:08:45;;;;;;;12.30;3.10;;;21.10;72.10;;;;;;5039766;28;20240;-88
2022/06/25 05:11:12;;;;;;;9.30;3.07;;;21.10;72.40;;;;;;5027597;28;20299;-87
2022/06/25 05:13:39;;;;;;;10.13;3.40;;;21.00;72.20;;;;;;5027212;28;20625;-88
2022/06/25 05:16:07;;;;;;;13.73;4.10;;;21.00;72.50;;;;;;5026215;28;20263;-89
2022/06/25 05:18:38;;;;;;;5.40;2.00;;;21.00;72.40;;;;;;5027723;28;20204;-87
2022/06/25 05:21:05;;;;;;;10.73;3.23;;;21.00;72.50;;;;;;5026423;28;20246;-88
2022/06/25 05:23:32;;;;;;;11.97;3.60;;;21.00;72.80;;;;;;5027365;28;20216;-89
2022/06/25 05:25:59;;;;;;;7.87;2.77;;;21.00;72.90;;;;;;5027099;28;20290;-88
2022/06/25 05:28:26;;;;;;;10.00;3.60;;;21.00;72.90;;;;;;5027052;28;20232;-89
2022/06/25 05:30:53;;;;;;;10.80;3.17;;;20.90;73.00;;;;;;5026883;28;20250;-93
2022/06/25 05:33:20;;;;;;;9.77;3.10;;;20.90;72.70;;;;;;5027157;28;20209;-87
2022/06/25 05:35:49;;;;;;;10.23;3.07;;;20.90;72.40;;;;;;5029627;28;20661;-88
2022/06/25 05:38:16;;;;;;;10.53;2.70;;;20.90;72.40;;;;;;5021318;28;20283;-87
2022/06/25 05:40:43;;;;;;;9.10;2.87;;;20.90;72.70;;;;;;5029774;28;20647;-87
2022/06/25 05:43:10;;;;;;;8.53;2.83;;;20.90;72.50;;;;;;5029344;28;20240;-87
2022/06/25 05:45:37;;;;;;;9.27;2.93;;;20.80;72.90;;;;;;5030062;28;20776;-87
2022/06/25 05:48:04;;;;;;;9.10;3.27;;;20.80;73.00;;;;;;5026589;28;20283;-87
2022/06/25 05:50:32;;;;;;;13.60;3.50;;;20.80;72.90;;;;;;5039023;28;20216;-87
2022/06/25 05:53:00;;;;;;;11.37;3.43;;;20.80;72.90;;;;;;5027693;28;20242;-87
2022/06/25 05:55:28;;;;;;;9.13;2.97;;;20.80;73.40;;;;;;5026564;28;20228;-88
2022/06/25 05:57:56;;;;;;;9.67;3.13;;;20.80;73.00;;;;;;5030651;28;20205;-87
2022/06/25 06:00:22;;;;;;;10.57;3.23;;;20.80;72.90;;;;;;5030895;28;20203;-88
2022/06/25 06:02:50;;;;;;;11.60;3.43;;;20.80;73.70;;;;;;5030483;28;20292;-88
2022/06/25 06:05:17;;;;;;;12.63;3.70;;;20.80;73.50;;;;;;5030648;28;20196;-89
2022/06/25 06:07:44;;;;;;;12.13;3.77;;;20.80;73.20;;;;;;5027537;28;20768;-88
2022/06/25 06:10:13;;;;;;;14.23;4.30;;;20.80;73.90;;;;;;5026037;28;20220;-88
2022/06/25 06:12:40;;;;;;;10.00;3.73;;;20.90;73.90;;;;;;5029597;28;20240;-88
2022/06/25 06:15:08;;;;;;;11.60;3.07;;;20.80;74.10;;;;;;5029696;28;20196;-88
2022/06/25 06:17:35;;;;;;;10.17;3.20;;;20.90;74.80;;;;;;5019192;28;20294;-88
2022/06/25 06:20:02;;;;;;;12.90;3.47;;;20.80;74.10;;;;;;5014149;28;20260;-88
2022/06/25 06:22:29;;;;;;;9.50;2.70;;;20.90;74.00;;;;;;5029828;28;20207;-88
2022/06/25 06:24:56;;;;;;;9.60;2.97;;;20.90;74.20;;;;;;5030434;28;20249;-86
2022/06/25 06:27:24;;;;;;;10.43;3.37;;;20.90;74.40;;;;;;5029657;28;20772;-88
2022/06/25 06:29:51;;;;;;;12.67;3.47;;;20.80;74.20;;;;;;5030166;28;20279;-89
2022/06/25 06:32:18;;;;;;;8.77;2.67;;;20.90;73.90;;;;;;5030056;28;20208;-88
2022/06/25 06:34:45;;;;;;;11.77;3.93;;;20.90;73.90;;;;;;5030046;28;20204;-88
2022/06/25 06:37:12;;;;;;;10.03;3.47;;;20.80;73.90;;;;;;5030052;28;20254;-87
2022/06/25 06:39:40;;;;;;;9.60;3.37;;;20.90;74.60;;;;;;5029304;28;20235;-88
2022/06/25 06:42:08;;;;;;;10.20;3.17;;;20.80;74.70;;;;;;5028403;28;20223;-88
2022/06/25 06:44:36;;;;;;;10.53;3.57;;;20.80;73.70;;;;;;5028886;28;20205;-88
2022/06/25 06:47:03;;;;;;;10.50;3.33;;;20.80;72.30;;;;;;5026240;28;20764;-87
2022/06/25 06:49:30;;;;;;;9.40;3.17;;;20.80;72.70;;;;;;5018997;28;20648;-88
2022/06/25 06:51:57;;;;;;;8.80;2.77;;;20.70;72.50;;;;;;5031143;28;20223;-94
2022/06/25 06:54:24;;;;;;;8.63;2.77;;;20.70;72.70;;;;;;5029605;28;20204;-88
2022/06/25 06:56:53;;;;;;;9.67;3.30;;;20.70;72.20;;;;;;5028317;28;20209;-87
2022/06/25 06:59:20;;;;;;;10.57;3.47;;;20.60;72.10;;;;;;5028762;28;20205;-87
2022/06/25 07:01:48;;;;;;;7.00;2.23;;;20.60;72.80;;;;;;5029120;28;20281;-87
2022/06/25 07:04:15;;;;;;;9.40;3.03;;;20.50;72.70;;;;;;5028070;28;20307;-87
2022/06/25 07:06:42;;;;;;;9.47;2.90;;;20.50;72.30;;;;;;5010976;28;20750;-89
2022/06/25 07:09:09;;;;;;;10.10;3.43;;;20.50;71.90;;;;;;5028609;28;20656;-87
2022/06/25 07:11:36;;;;;;;9.67;3.30;;;20.40;72.00;;;;;;5027886;28;20246;-88
2022/06/25 07:14:05;;;;;;;10.50;3.27;;;20.40;72.10;;;;;;5026928;28;20200;-87
2022/06/25 07:16:34;;;;;;;13.30;3.93;;;20.40;72.20;;;;;;5028711;28;20683;-87
2022/06/25 07:19:02;;;;;;;10.63;2.80;;;20.40;73.10;;;;;;5028311;28;20210;-87
2022/06/25 07:21:30;;;;;;;9.97;3.30;;;20.40;73.40;;;;;;5028756;28;20232;-87
2022/06/25 07:23:57;;;;;;;8.40;2.97;;;20.40;73.00;;;;;;5012269;28;20209;-87
2022/06/25 07:26:25;;;;;;;13.17;4.00;;;20.40;72.70;;;;;;5008513;28;20279;-87
2022/06/25 07:28:53;;;;;;;6.67;2.37;;;20.40;72.30;;;;;;5016729;28;20211;-87
2022/06/25 07:31:20;;;;;;;9.27;3.33;;;20.40;72.20;;;;;;5028345;28;20209;-87
2022/06/25 07:33:51;;;;;;;8.93;3.27;;;20.40;72.50;;;;;;5028499;28;20207;-87
2022/06/25 07:36:20;;;;;;;8.60;2.93;;;20.40;73.00;;;;;;5028529;28;20232;-87
2022/06/25 07:38:47;;;;;;;10.67;3.07;;;20.40;72.20;;;;;;5028414;28;20671;-87
2022/06/25 07:41:14;;;;;;;11.77;3.87;;;20.40;72.10;;;;;;5028113;28;20296;-87
2022/06/25 07:43:41;;;;;;;10.30;3.77;;;20.40;72.30;;;;;;5027471;28;20207;-87
2022/06/25 07:46:09;;;;;;;11.03;3.33;;;20.50;73.30;;;;;;5028379;28;20704;-87
2022/06/25 07:48:37;;;;;;;8.03;3.17;;;20.50;72.80;;;;;;5028215;28;20581;-88
2022/06/25 07:53:50;;;;;;;8.07;2.73;;;20.50;73.70;;;;;;5030758;28;20336;-88
2022/06/25 07:56:17;;;;;;;8.77;3.10;;;20.60;74.80;;;;;;5027952;28;20240;-87
2022/06/25 07:58:44;;;;;;;8.93;3.07;;;20.60;75.40;;;;;;5028767;28;20641;-88
2022/06/25 08:01:12;;;;;;;14.53;4.17;;;20.70;76.80;;;;;;5030583;28;20669;-87
2022/06/25 08:03:39;;;;;;;8.07;3.10;;;20.80;77.60;;;;;;5029996;28;20221;-87
2022/06/25 08:06:07;;;;;;;10.47;3.43;;;20.90;76.70;;;;;;5017401;28;20742;-87
2022/06/25 08:08:34;;;;;;;8.73;3.23;;;20.90;76.60;;;;;;5008677;28;20297;-87
2022/06/25 08:11:02;;;;;;;8.33;3.47;;;21.00;76.70;;;;;;5008679;28;20193;-88
2022/06/25 08:13:29;;;;;;;9.27;3.27;;;21.10;75.60;;;;;;5020327;28;20267;-88
2022/06/25 08:15:59;;;;;;;12.73;4.00;;;21.20;75.70;;;;;;5028304;28;20237;-89
2022/06/25 08:18:27;;;;;;;7.10;2.73;;;21.20;74.60;;;;;;5011021;28;20213;-90
2022/06/25 08:20:57;;;;;;;11.67;3.43;;;21.30;74.70;;;;;;5008208;28;20877;-89
2022/06/25 08:23:24;;;;;;;9.17;3.13;;;21.30;75.20;;;;;;5022785;28;20293;-88
2022/06/25 08:25:52;;;;;;;11.30;3.87;;;21.50;75.90;;;;;;5026541;28;20270;-88
2022/06/25 08:28:22;;;;;;;9.17;3.83;;;21.50;75.90;;;;;;5027716;28;20283;-88
2022/06/25 08:30:49;;;;;;;9.23;3.80;;;21.60;76.60;;;;;;5028835;28;20275;-88
2022/06/25 08:33:16;;;;;;;12.27;3.43;;;21.70;76.50;;;;;;5027125;28;20208;-89
2022/06/25 08:35:44;;;;;;;9.80;3.53;;;21.70;76.10;;;;;;5028330;28;20197;-86
2022/06/25 08:38:12;;;;;;;11.30;4.47;;;21.90;77.00;;;;;;5025892;28;20282;-89
2022/06/25 08:40:40;;;;;;;8.73;3.07;;;21.90;76.60;;;;;;5026655;28;20204;-89
2022/06/25 08:43:07;;;;;;;8.47;3.10;;;22.10;76.40;;;;;;5026309;28;20315;-87
2022/06/25 08:45:36;;;;;;;11.30;3.13;;;22.20;75.80;;;;;;5027028;28;20687;-88
2022/06/25 08:48:10;;;;;;;9.20;3.13;;;22.40;76.10;;;;;;5026659;28;20256;-89
2022/06/25 08:50:38;;;;;;;10.80;3.57;;;22.50;75.80;;;;;;5025999;28;20216;-90
2022/06/25 08:53:05;;;;;;;6.60;3.03;;;22.70;76.80;;;;;;5024898;28;20770;-88
2022/06/25 08:55:36;;;;;;;10.23;4.57;;;22.90;75.90;;;;;;5025110;28;20801;-91
2022/06/25 08:58:05;;;;;;;8.40;3.33;;;23.10;74.40;;;;;;5022652;28;20212;-90
2022/06/25 09:00:33;;;;;;;10.83;3.80;;;23.30;75.00;;;;;;5025938;28;20193;-88
2022/06/25 09:03:03;;;;;;;7.80;3.43;;;23.50;73.20;;;;;;5026071;28;20734;-89
2022/06/25 09:05:32;;;;;;;6.70;3.50;;;23.70;72.70;;;;;;5026301;28;20201;-88
2022/06/25 09:08:01;;;;;;;10.53;3.53;;;23.80;72.10;;;;;;5025759;28;20312;-88
2022/06/25 09:10:29;;;;;;;9.03;3.57;;;24.00;72.30;;;;;;5028592;28;20279;-89
2022/06/25 09:12:59;;;;;;;12.03;3.87;;;24.10;71.80;;;;;;5029166;28;20615;-90
2022/06/25 09:15:28;;;;;;;7.20;3.03;;;24.30;70.90;;;;;;5029973;28;20461;-90
2022/06/25 09:17:56;;;;;;;7.33;3.37;;;24.40;70.00;;;;;;5029078;28;20207;-89
2022/06/25 09:20:24;;;;;;;10.00;3.97;;;24.60;70.20;;;;;;5029764;28;20330;-89
2022/06/25 09:22:57;;;;;;;9.30;3.53;;;24.70;69.60;;;;;;5029461;28;20196;-90
2022/06/25 09:25:29;;;;;;;10.20;4.13;;;24.80;70.20;;;;;;5031415;28;20298;-89
2022/06/25 09:27:57;;;;;;;6.60;2.97;;;24.90;69.80;;;;;;5030668;28;20240;-89
2022/06/25 09:30:28;;;;;;;6.93;2.93;;;25.00;68.10;;;;;;5031032;28;20218;-88
2022/06/25 09:32:57;;;;;;;7.63;3.10;;;25.20;68.00;;;;;;5013801;28;20197;-89
2022/06/25 09:35:34;;;;;;;9.23;4.20;;;25.30;68.50;;;;;;5030947;28;20232;-89
2022/06/25 09:38:06;;;;;;;8.30;3.53;;;25.30;67.40;;;;;;5031064;28;20666;-88
2022/06/25 09:40:34;;;;;;;10.37;4.33;;;25.40;67.60;;;;;;5030961;28;20648;-88
2022/06/25 09:43:12;;;;;;;7.37;3.40;;;25.60;67.80;;;;;;5015568;28;20251;-87
2022/06/25 09:45:41;;;;;;;12.27;4.33;;;25.70;66.70;;;;;;5010729;28;20204;-89
2022/06/25 09:48:18;;;;;;;7.77;3.43;;;25.80;66.10;;;;;;5011099;28;20229;-89
2022/06/25 09:50:53;;;;;;;8.20;3.40;;;25.90;64.50;;;;;;5011046;28;20228;-90
2022/06/25 09:53:26;;;;;;;8.73;3.33;;;26.00;65.00;;;;;;5010834;28;20259;-89
2022/06/25 09:55:53;;;;;;;7.80;3.57;;;26.10;64.40;;;;;;5012478;28;20200;-89
2022/06/25 09:58:21;;;;;;;7.70;3.50;;;26.10;64.30;;;;;;5028824;28;20386;-90
2022/06/25 10:00:48;;;;;;;6.67;2.80;;;26.20;64.00;;;;;;5030742;28;20199;-89
2022/06/25 10:03:15;;;;;;;5.07;2.23;;;26.20;63.80;;;;;;5031081;28;20326;-90
2022/06/25 10:05:43;;;;;;;9.13;4.03;;;26.20;62.60;;;;;;5030526;28;20327;-90
2022/06/25 10:08:14;;;;;;;8.40;3.87;;;26.30;61.80;;;;;;5030407;28;20224;-88
2022/06/25 10:10:43;;;;;;;9.53;4.10;;;26.40;61.00;;;;;;5029009;28;20235;-90
2022/06/25 10:13:10;;;;;;;9.60;3.40;;;26.50;60.90;;;;;;5015684;28;20675;-92
2022/06/25 10:15:38;;;;;;;7.93;3.23;;;26.50;60.30;;;;;;5017411;28;20251;-89
2022/06/25 10:18:09;;;;;;;9.03;2.67;;;26.50;59.90;;;;;;5030533;28;20204;-89
2022/06/25 10:20:39;;;;;;;7.40;3.20;;;26.50;58.70;;;;;;5027681;28;20584;-90
2022/06/25 10:23:08;;;;;;;11.50;3.50;;;26.50;58.70;;;;;;5030526;28;20661;-89
2022/06/25 10:25:38;;;;;;;7.67;3.23;;;26.50;58.40;;;;;;5030454;28;20267;-90
2022/06/25 10:28:08;;;;;;;4.90;2.30;;;26.50;58.20;;;;;;5029754;28;20343;-88
2022/06/25 10:30:44;;;;;;;7.60;3.17;;;26.40;58.30;;;;;;5029310;28;20213;-88
2022/06/25 10:33:11;;;;;;;7.07;3.10;;;26.50;59.30;;;;;;5029763;28;20322;-90
2022/06/25 10:35:49;;;;;;;7.67;3.53;;;26.50;58.70;;;;;;5032630;28;20232;-94
2022/06/25 10:38:25;;;;;;;11.70;4.93;;;26.50;58.10;;;;;;5027836;28;20209;-95
2022/06/25 10:40:57;;;;;;;9.70;4.20;;;26.50;58.00;;;;;;5028356;28;20266;-92
2022/06/25 10:43:42;;;;;;;8.17;3.23;;;26.60;57.60;;;;;;5026041;28;20205;-93
2022/06/25 10:46:29;;;;;;;6.07;2.80;;;26.60;56.90;;;;;;5032578;28;20228;-91
2022/06/25 10:48:59;;;;;;;6.30;2.57;;;26.60;57.10;;;;;;5031142;28;20315;-95
2022/06/25 10:51:31;;;;;;;6.20;2.53;;;26.60;57.40;;;;;;5031655;28;20228;-91
2022/06/25 10:53:59;;;;;;;6.33;2.63;;;26.60;57.00;;;;;;5033337;28;20193;-91
2022/06/25 10:56:45;;;;;;;7.63;2.37;;;26.60;57.00;;;;;;5034315;28;20227;-94
2022/06/25 10:59:48;;;;;;;6.80;3.03;;;26.60;56.50;;;;;;5033416;28;20275;-91
2022/06/25 11:02:27;;;;;;;8.10;2.93;;;26.60;56.20;;;;;;5029174;28;20221;-90
2022/06/25 11:04:56;;;;;;;12.33;4.13;;;26.60;56.20;;;;;;5027761;28;20224;-91
2022/06/25 11:07:24;;;;;;;9.67;4.37;;;26.50;56.50;;;;;;5029392;28;20201;-90
2022/06/25 11:09:59;;;;;;;10.53;3.93;;;26.50;56.60;;;;;;5015513;28;20657;-88
2022/06/25 11:12:34;;;;;;;8.50;3.10;;;26.50;56.00;;;;;;5025723;28;20287;-90
2022/06/25 11:15:03;;;;;;;7.03;3.23;;;26.40;55.50;;;;;;5021306;28;20218;-87
2022/06/25 11:17:31;;;;;;;9.00;3.67;;;26.40;56.00;;;;;;5027647;28;20291;-90
2022/06/25 11:20:07;;;;;;;7.97;3.00;;;26.30;56.00;;;;;;5025089;28;20298;-89
2022/06/25 11:22:34;;;;;;;9.83;3.57;;;26.30;55.50;;;;;;5027970;28;20288;-88
2022/06/25 11:30:34;;;;;;;10.93;4.00;;;26.10;56.30;;;;;;5030012;28;20602;-88
2022/06/25 11:33:03;;;;;;;8.00;3.07;;;26.10;56.50;;;;;;5041754;28;20208;-87
2022/06/25 11:35:39;;;;;;;11.23;4.27;;;26.00;56.40;;;;;;5031200;28;20196;-89
2022/06/25 11:38:17;;;;;;;4.03;2.37;;;26.00;56.10;;;;;;5029740;28;20219;-91
2022/06/25 11:40:44;;;;;;;10.97;4.33;;;26.00;55.80;;;;;;5026832;28;20718;-88
2022/06/25 11:43:14;;;;;;;6.53;2.70;;;26.00;56.00;;;;;;5027785;28;20542;-88
2022/06/25 11:45:49;;;;;;;6.93;2.93;;;26.00;55.70;;;;;;5029470;28;20204;-88
2022/06/25 11:48:18;;;;;;;13.53;4.97;;;26.00;55.40;;;;;;5026046;28;20220;-89
2022/06/25 11:50:47;;;;;;;10.20;4.17;;;26.00;55.70;;;;;;5020525;28;20228;-90
2022/06/25 11:53:17;;;;;;;8.37;3.43;;;26.10;55.70;;;;;;5025890;28;20232;-89
2022/06/25 11:55:56;;;;;;;11.37;4.10;;;26.10;55.60;;;;;;5035172;28;20321;-90
2022/06/25 11:58:26;;;;;;;10.13;3.03;;;26.10;55.70;;;;;;5043805;28;20204;-89
2022/06/25 12:00:58;;;;;;;7.47;3.37;;;26.10;55.90;;;;;;5033685;28;20268;-91
2022/06/25 12:03:26;;;;;;;4.30;2.10;;;26.10;54.90;;;;;;5024970;28;20236;-89
2022/06/25 12:05:53;;;;;;;8.00;3.13;;;26.10;55.10;;;;;;5018914;28;20241;-88
2022/06/25 12:08:21;;;;;;;9.57;3.87;;;26.20;55.30;;;;;;5017739;28;20225;-89
2022/06/25 12:10:48;;;;;;;12.03;4.47;;;26.20;55.10;;;;;;5010907;28;20216;-89
2022/06/25 12:13:16;;;;;;;8.53;3.80;;;26.20;55.10;;;;;;5020246;28;20823;-91
2022/06/25 12:15:45;;;;;;;6.50;2.97;;;26.20;54.90;;;;;;5026018;28;20657;-89
2022/06/25 12:18:13;;;;;;;8.97;4.03;;;26.20;54.60;;;;;;5026284;28;20207;-89
2022/06/25 12:20:54;;;;;;;6.63;2.80;;;26.20;54.80;;;;;;5009633;28;20204;-92
2022/06/25 12:23:21;;;;;;;16.83;6.40;;;26.10;54.10;;;;;;5025476;28;20235;-89
2022/06/25 12:25:49;;;;;;;8.37;3.33;;;26.20;54.60;;;;;;5026351;28;20212;-91
2022/06/25 12:28:18;;;;;;;9.17;4.07;;;26.10;54.30;;;;;;5027358;28;20217;-89
2022/06/25 12:30:46;;;;;;;9.10;3.97;;;26.10;54.40;;;;;;5025977;28;20209;-89
2022/06/25 12:33:14;;;;;;;8.00;3.00;;;26.00;54.30;;;;;;5026872;28;20290;-88
2022/06/25 12:35:42;;;;;;;8.87;3.37;;;26.00;54.80;;;;;;5027098;28;20220;-89
2022/06/25 12:38:12;;;;;;;6.83;2.93;;;26.00;54.60;;;;;;5027118;28;20208;-91
2022/06/25 12:40:40;;;;;;;5.70;2.70;;;26.00;54.50;;;;;;5028707;28;20212;-88
2022/06/25 12:43:12;;;;;;;8.03;3.37;;;26.00;54.50;;;;;;5026314;28;20201;-91
2022/06/25 12:45:41;;;;;;;8.03;2.73;;;26.00;54.40;;;;;;5022740;28;20287;-91
2022/06/25 12:48:10;;;;;;;4.93;2.43;;;26.00;54.70;;;;;;5019983;28;20212;-89
2022/06/25 12:50:39;;;;;;;4.80;2.33;;;26.00;54.90;;;;;;5025090;28;20259;-89
2022/06/25 12:53:09;;;;;;;6.47;2.70;;;26.00;55.10;;;;;;5032347;28;20208;-90
2022/06/25 12:55:37;;;;;;;8.00;3.03;;;26.10;55.30;;;;;;5031473;28;20271;-89
2022/06/25 12:58:08;;;;;;;14.13;5.17;;;26.10;54.70;;;;;;5028153;28;20693;-89
2022/06/25 13:00:37;;;;;;;5.73;2.27;;;26.10;54.30;;;;;;5012247;28;20300;-91
2022/06/25 13:03:05;;;;;;;9.57;4.10;;;26.10;54.30;;;;;;5012139;28;20205;-92
2022/06/25 13:05:34;;;;;;;14.13;3.67;;;26.10;54.40;;;;;;5023328;28;20204;-89
2022/06/25 13:08:03;;;;;;;5.87;2.77;;;26.10;54.60;;;;;;5031374;28;20748;-90